createdAt,value
2018-10-11T00:00:05.207Z,70.526123
2018-10-11T00:00:34.918Z,70.220947
2018-10-11T00:01:04.622Z,71.130371
2018-10-11T00:01:34.369Z,68.310547
2018-10-11T00:02:03.911Z,70.825195
2018-10-11T00:02:33.829Z,69.213867
2018-10-11T00:03:03.317Z,71.734619
2018-10-11T00:03:33.149Z,70.727539
2018-10-11T00:04:02.642Z,72.540283
2018-10-11T00:04:32.424Z,71.032715
2018-10-11T00:05:02.016Z,70.727539
2018-10-11T00:05:31.711Z,71.234131
2018-10-11T00:06:01.671Z,71.636963
2018-10-11T00:06:31.303Z,69.818115
2018-10-11T00:07:01.141Z,69.213867
2018-10-11T00:07:30.638Z,68.206787
2018-10-11T00:08:00.407Z,68.139648
2018-10-11T00:08:29.923Z,68.743896
2018-10-11T00:08:59.897Z,71.77124
2018-10-11T00:09:30.461Z,71.063232
2018-10-11T00:10:00.902Z,69.250488
2018-10-11T00:10:30.478Z,68.54248
2018-10-11T00:11:00.342Z,68.981934
2018-10-11T00:11:30.251Z,69.07959
2018-10-11T00:12:00.179Z,71.398926
2018-10-11T00:12:29.968Z,70.056152
2018-10-11T00:12:59.931Z,69.07959
2018-10-11T00:13:29.579Z,69.18335
2018-10-11T00:13:59.508Z,69.989014
2018-10-11T00:14:29.016Z,71.30127
2018-10-11T00:14:58.634Z,69.482422
2018-10-11T00:15:28.392Z,68.981934
2018-10-11T00:15:58.031Z,72.271729
2018-10-11T00:16:27.560Z,71.972656
2018-10-11T00:16:57.600Z,71.868896
2018-10-11T00:17:29.941Z,71.77124
2018-10-11T00:18:00.661Z,68.139648
2018-10-11T00:18:34.010Z,68.774414
2018-10-11T00:19:06.713Z,70.6604
2018-10-11T00:19:37.961Z,72.070312
2018-10-11T00:20:11.006Z,69.854736
2018-10-11T00:20:42.932Z,69.348145
2018-10-11T00:21:22.289Z,70.355225
2018-10-11T00:21:53.304Z,69.854736
2018-10-11T00:22:25.907Z,69.250488
2018-10-11T00:22:56.556Z,71.77124
2018-10-11T00:23:26.334Z,70.556641
2018-10-11T00:23:56.099Z,70.257568
2018-10-11T00:24:25.989Z,70.727539
2018-10-11T00:24:56.037Z,68.914795
2018-10-11T00:25:25.772Z,70.123291
2018-10-11T00:25:55.264Z,70.220947
2018-10-11T00:26:25.596Z,70.623779
2018-10-11T00:26:55.128Z,70.623779
2018-10-11T00:27:24.863Z,70.123291
2018-10-11T00:27:54.846Z,71.099854
2018-10-11T00:28:25.367Z,67.803955
2018-10-11T00:28:55.144Z,70.324707
2018-10-11T00:29:24.702Z,70.019531
2018-10-11T00:29:54.469Z,68.609619
2018-10-11T00:30:24.475Z,71.032715
2018-10-11T00:30:54.209Z,71.130371
2018-10-11T00:31:24.088Z,70.526123
2018-10-11T00:31:53.938Z,70.623779
2018-10-11T00:32:23.436Z,70.928955
2018-10-11T00:32:53.106Z,71.099854
2018-10-11T00:33:22.643Z,68.408203
2018-10-11T00:33:52.834Z,70.019531
2018-10-11T00:34:22.646Z,72.039795
2018-10-11T00:34:52.202Z,72.338867
2018-10-11T00:35:21.914Z,70.697021
2018-10-11T00:35:51.515Z,71.19751
2018-10-11T00:36:21.099Z,70.19043
2018-10-11T00:36:51.169Z,70.697021
2018-10-11T00:37:20.988Z,72.003174
2018-10-11T00:37:50.537Z,72.406006
2018-10-11T00:38:21.185Z,72.711182
2018-10-11T00:38:50.575Z,73.21167
2018-10-11T00:39:20.164Z,69.891357
2018-10-11T00:39:49.856Z,73.815918
2018-10-11T00:40:19.818Z,73.31543
2018-10-11T00:40:49.377Z,72.003174
2018-10-11T00:41:19.142Z,69.989014
2018-10-11T00:41:48.623Z,70.294189
2018-10-11T00:42:18.501Z,72.20459
2018-10-11T00:42:48.328Z,71.099854
2018-10-11T00:43:18.297Z,70.697021
2018-10-11T00:43:48.175Z,71.868896
2018-10-11T00:44:18.231Z,73.114014
2018-10-11T00:44:47.895Z,71.099854
2018-10-11T00:45:17.380Z,71.099854
2018-10-11T00:45:46.963Z,71.362305
2018-10-11T00:46:16.692Z,72.369385
2018-10-11T00:46:46.371Z,73.376465
2018-10-11T00:47:15.989Z,71.868896
2018-10-11T00:47:45.647Z,72.271729
2018-10-11T00:48:16.516Z,70.257568
2018-10-11T00:48:46.192Z,71.063232
2018-10-11T00:49:15.745Z,70.257568
2018-10-11T00:49:45.529Z,70.76416
2018-10-11T00:50:15.140Z,69.854736
2018-10-11T00:50:44.983Z,72.570801
2018-10-11T00:51:14.474Z,71.868896
2018-10-11T00:51:43.957Z,72.473145
2018-10-11T00:52:13.444Z,70.257568
2018-10-11T00:52:42.933Z,69.75708
2018-10-11T00:53:12.477Z,71.765137
2018-10-11T00:53:41.954Z,71.362305
2018-10-11T00:54:11.441Z,72.369385
2018-10-11T00:54:41.114Z,71.362305
2018-10-11T00:55:10.608Z,70.056152
2018-10-11T00:55:40.097Z,71.264648
2018-10-11T00:56:09.596Z,71.160889
2018-10-11T00:56:39.099Z,71.966553
2018-10-11T00:57:08.583Z,70.76416
2018-10-11T00:57:38.110Z,69.555664
2018-10-11T00:58:07.658Z,69.250488
2018-10-11T00:58:37.184Z,68.75
2018-10-11T00:59:06.677Z,71.868896
2018-10-11T00:59:36.209Z,71.966553
2018-10-11T01:00:05.727Z,70.959473
2018-10-11T01:00:35.250Z,69.354248
2018-10-11T01:01:04.793Z,70.361328
2018-10-11T01:01:34.370Z,72.271729
2018-10-11T01:02:04.035Z,69.65332
2018-10-11T01:02:33.603Z,69.555664
2018-10-11T01:03:03.095Z,69.555664
2018-10-11T01:03:32.647Z,71.966553
2018-10-11T01:04:02.203Z,69.354248
2018-10-11T01:04:31.781Z,73.577881
2018-10-11T01:05:01.265Z,69.219971
2018-10-11T01:05:30.840Z,70.6604
2018-10-11T01:06:00.455Z,69.854736
2018-10-11T01:06:30.014Z,68.64624
2018-10-11T01:06:59.508Z,72.070312
2018-10-11T01:07:29.015Z,71.66748
2018-10-11T01:07:59.571Z,70.76416
2018-10-11T01:08:29.131Z,70.562744
2018-10-11T01:08:58.662Z,72.167969
2018-10-11T01:09:28.322Z,70.562744
2018-10-11T01:09:57.897Z,69.958496
2018-10-11T01:10:27.332Z,70.562744
2018-10-11T01:10:56.917Z,71.563721
2018-10-11T01:11:26.524Z,70.861816
2018-10-11T01:11:56.049Z,68.75
2018-10-11T01:12:25.551Z,71.362305
2018-10-11T01:12:55.118Z,72.070312
2018-10-11T01:13:24.641Z,70.959473
2018-10-11T01:13:54.193Z,70.6604
2018-10-11T01:14:23.695Z,70.159912
2018-10-11T01:14:53.192Z,69.152832
2018-10-11T01:15:22.823Z,70.159912
2018-10-11T01:15:52.320Z,72.167969
2018-10-11T01:16:21.808Z,72.167969
2018-10-11T01:16:51.311Z,73.278809
2018-10-11T01:17:20.806Z,71.063232
2018-10-11T01:17:49.285Z,72.271729
2018-10-11T01:18:18.784Z,69.451904
2018-10-11T01:18:48.330Z,71.264648
2018-10-11T01:19:17.846Z,70.562744
2018-10-11T01:19:48.331Z,70.76416
2018-10-11T01:20:17.841Z,69.958496
2018-10-11T01:20:47.338Z,71.160889
2018-10-11T01:21:16.846Z,71.362305
2018-10-11T01:21:46.387Z,68.444824
2018-10-11T01:22:16.894Z,67.974854
2018-10-11T01:22:46.418Z,70.495605
2018-10-11T01:23:16.909Z,70.092773
2018-10-11T01:23:46.450Z,70.495605
2018-10-11T01:24:16.007Z,71.398926
2018-10-11T01:24:45.517Z,71.704102
2018-10-11T01:25:15.013Z,69.787598
2018-10-11T01:25:44.511Z,70.294189
2018-10-11T01:26:14.000Z,69.891357
2018-10-11T01:26:43.497Z,71.30127
2018-10-11T01:27:12.990Z,68.682861
2018-10-11T01:27:42.490Z,73.413086
2018-10-11T01:28:11.999Z,72.406006
2018-10-11T01:28:41.522Z,72.711182
2018-10-11T01:29:11.061Z,72.406006
2018-10-11T01:29:40.651Z,72.406006
2018-10-11T01:30:10.154Z,71.905518
2018-10-11T01:30:39.546Z,72.106934
2018-10-11T01:31:09.074Z,72.30835
2018-10-11T01:31:38.567Z,70.495605
2018-10-11T01:32:08.070Z,69.891357
2018-10-11T01:32:37.580Z,71.398926
2018-10-11T01:33:08.083Z,72.20459
2018-10-11T01:33:37.597Z,72.607422
2018-10-11T01:34:07.155Z,70.361328
2018-10-11T01:34:36.652Z,70.76416
2018-10-11T01:35:06.144Z,70.361328
2018-10-11T01:35:35.655Z,71.563721
2018-10-11T01:36:05.145Z,70.959473
2018-10-11T01:36:34.642Z,71.466064
2018-10-11T01:37:04.134Z,72.167969
2018-10-11T01:37:33.638Z,71.466064
2018-10-11T01:38:03.127Z,71.264648
2018-10-11T01:38:32.670Z,71.466064
2018-10-11T01:39:02.108Z,70.959473
2018-10-11T01:39:31.643Z,70.76416
2018-10-11T01:40:01.260Z,70.159912
2018-10-11T01:40:30.747Z,69.152832
2018-10-11T01:41:00.264Z,68.444824
2018-10-11T01:41:29.762Z,69.488525
2018-10-11T01:41:59.257Z,69.989014
2018-10-11T01:42:28.746Z,72.607422
2018-10-11T01:42:58.256Z,72.473145
2018-10-11T01:43:27.771Z,71.966553
2018-10-11T01:43:57.292Z,70.861816
2018-10-11T01:44:26.842Z,69.354248
2018-10-11T01:44:56.343Z,72.473145
2018-10-11T01:45:25.838Z,72.070312
2018-10-11T01:45:55.361Z,72.973633
2018-10-11T01:46:24.865Z,71.160889
2018-10-11T01:46:54.358Z,70.458984
2018-10-11T01:47:23.861Z,72.674561
2018-10-11T01:47:53.357Z,68.951416
2018-10-11T01:48:22.856Z,69.75708
2018-10-11T01:48:52.359Z,69.152832
2018-10-11T01:49:22.851Z,69.854736
2018-10-11T01:49:52.396Z,69.75708
2018-10-11T01:50:21.979Z,70.159912
2018-10-11T01:50:51.402Z,71.362305
2018-10-11T01:51:20.998Z,72.772217
2018-10-11T01:51:50.509Z,71.765137
2018-10-11T01:52:20.022Z,70.257568
2018-10-11T01:52:49.563Z,70.76416
2018-10-11T01:53:19.089Z,70.861816
2018-10-11T01:53:48.585Z,71.466064
2018-10-11T01:54:18.099Z,71.868896
2018-10-11T01:54:47.644Z,71.160889
2018-10-11T01:55:17.145Z,71.563721
2018-10-11T01:55:47.630Z,71.66748
2018-10-11T01:56:17.151Z,72.167969
2018-10-11T01:56:46.660Z,69.75708
2018-10-11T01:57:16.272Z,71.063232
2018-10-11T01:57:45.792Z,70.6604
2018-10-11T01:58:15.306Z,72.070312
2018-10-11T01:58:44.821Z,70.458984
2018-10-11T01:59:14.327Z,71.563721
2018-10-11T01:59:43.814Z,71.466064
2018-10-11T02:00:13.359Z,70.159912
2018-10-11T02:00:42.851Z,71.563721
2018-10-11T02:01:12.358Z,69.049072
2018-10-11T02:01:41.827Z,71.264648
2018-10-11T02:02:11.325Z,68.847656
2018-10-11T02:02:40.820Z,70.056152
2018-10-11T02:03:11.306Z,70.562744
2018-10-11T02:03:40.791Z,70.361328
2018-10-11T02:04:10.283Z,71.264648
2018-10-11T02:04:39.776Z,69.75708
2018-10-11T02:05:09.335Z,70.361328
2018-10-11T02:05:38.856Z,70.562744
2018-10-11T02:06:08.354Z,70.257568
2018-10-11T02:06:37.845Z,69.049072
2018-10-11T02:07:07.337Z,72.772217
2018-10-11T02:07:36.863Z,71.765137
2018-10-11T02:08:06.348Z,70.76416
2018-10-11T02:08:35.838Z,70.562744
2018-10-11T02:09:05.327Z,68.64624
2018-10-11T02:09:34.893Z,70.257568
2018-10-11T02:10:04.784Z,71.704102
2018-10-11T02:10:34.336Z,71.264648
2018-10-11T02:11:04.901Z,70.861816
2018-10-11T02:11:34.437Z,68.280029
2018-10-11T02:12:03.940Z,68.280029
2018-10-11T02:12:33.421Z,67.974854
2018-10-11T02:13:02.911Z,68.310547
2018-10-11T02:13:32.404Z,70.153809
2018-10-11T02:14:01.900Z,70.458984
2018-10-11T02:14:31.406Z,70.861816
2018-10-11T02:15:00.903Z,73.144531
2018-10-11T02:15:30.529Z,71.734619
2018-10-11T02:16:00.017Z,71.838379
2018-10-11T02:16:29.499Z,73.144531
2018-10-11T02:16:59.034Z,71.099854
2018-10-11T02:17:28.563Z,71.905518
2018-10-11T02:17:58.030Z,71.099854
2018-10-11T02:18:27.521Z,70.898438
2018-10-11T02:18:57.064Z,71.398926
2018-10-11T02:19:26.550Z,70.996094
2018-10-11T02:19:56.034Z,70.593262
2018-10-11T02:20:25.523Z,70.697021
2018-10-11T02:20:56.056Z,71.600342
2018-10-11T02:21:25.551Z,72.509766
2018-10-11T02:21:55.053Z,72.20459
2018-10-11T02:22:24.573Z,72.912598
2018-10-11T02:22:54.060Z,73.010254
2018-10-11T02:23:23.572Z,71.398926
2018-10-11T02:23:53.103Z,70.996094
2018-10-11T02:24:22.609Z,70.794678
2018-10-11T02:24:52.090Z,71.600342
2018-10-11T02:25:21.633Z,71.563721
2018-10-11T02:25:51.199Z,69.085693
2018-10-11T02:26:20.673Z,70.391846
2018-10-11T02:26:50.191Z,69.586182
2018-10-11T02:27:19.678Z,69.891357
2018-10-11T02:27:49.176Z,69.921875
2018-10-11T02:28:18.671Z,70.294189
2018-10-11T02:28:49.158Z,70.092773
2018-10-11T02:29:18.656Z,68.914795
2018-10-11T02:29:48.178Z,69.989014
2018-10-11T02:30:17.672Z,69.012451
2018-10-11T02:30:47.160Z,68.914795
2018-10-11T02:31:16.734Z,69.213867
2018-10-11T02:31:46.259Z,69.519043
2018-10-11T02:32:15.701Z,70.422363
2018-10-11T02:32:45.192Z,71.130371
2018-10-11T02:33:14.687Z,72.137451
2018-10-11T02:33:44.186Z,72.003174
2018-10-11T02:34:13.689Z,72.003174
2018-10-11T02:34:43.184Z,72.607422
2018-10-11T02:35:12.708Z,70.996094
2018-10-11T02:35:42.207Z,68.579102
2018-10-11T02:36:11.755Z,68.713379
2018-10-11T02:36:41.253Z,69.012451
2018-10-11T02:37:10.743Z,69.921875
2018-10-11T02:37:40.270Z,70.123291
2018-10-11T02:38:09.767Z,72.338867
2018-10-11T02:38:39.264Z,73.046875
2018-10-11T02:39:08.753Z,73.345947
2018-10-11T02:39:38.261Z,72.912598
2018-10-11T02:40:07.755Z,72.30835
2018-10-11T02:40:37.266Z,72.406006
2018-10-11T02:41:06.765Z,72.711182
2018-10-11T02:41:36.301Z,69.18335
2018-10-11T02:42:05.824Z,69.287109
2018-10-11T02:42:35.321Z,69.989014
2018-10-11T02:43:04.852Z,69.818115
2018-10-11T02:43:34.381Z,69.116211
2018-10-11T02:44:03.886Z,69.519043
2018-10-11T02:44:33.411Z,69.750977
2018-10-11T02:45:02.912Z,69.952393
2018-10-11T02:45:32.492Z,69.952393
2018-10-11T02:46:02.982Z,70.257568
2018-10-11T02:46:32.526Z,71.166992
2018-10-11T02:47:02.026Z,70.458984
2018-10-11T02:47:31.524Z,71.569824
2018-10-11T02:48:01.016Z,73.883057
2018-10-11T02:48:30.523Z,73.883057
2018-10-11T02:49:00.015Z,71.435547
2018-10-11T02:49:29.504Z,73.852539
2018-10-11T02:49:58.991Z,73.345947
2018-10-11T02:50:28.549Z,71.838379
2018-10-11T02:50:58.041Z,72.003174
2018-10-11T02:51:27.540Z,71.801758
2018-10-11T02:51:57.087Z,71.398926
2018-10-11T02:52:27.591Z,72.607422
2018-10-11T02:52:57.090Z,72.30835
2018-10-11T02:53:26.587Z,71.905518
2018-10-11T02:53:56.101Z,71.099854
2018-10-11T02:54:25.608Z,71.801758
2018-10-11T02:54:55.095Z,72.509766
2018-10-11T02:55:24.595Z,72.003174
2018-10-11T02:55:55.104Z,72.509766
2018-10-11T02:56:24.628Z,73.718262
2018-10-11T02:56:54.181Z,71.600342
2018-10-11T02:57:23.726Z,70.19043
2018-10-11T02:57:53.223Z,71.801758
2018-10-11T02:58:22.720Z,71.801758
2018-10-11T02:58:52.205Z,72.30835
2018-10-11T02:59:21.699Z,72.106934
2018-10-11T02:59:51.181Z,72.20459
2018-10-11T03:00:20.685Z,72.30835
2018-10-11T03:00:50.177Z,73.31543
2018-10-11T03:01:20.788Z,73.21167
2018-10-11T03:01:52.794Z,72.711182
2018-10-11T03:02:22.346Z,70.697021
2018-10-11T03:02:51.839Z,73.718262
2018-10-11T03:03:21.330Z,72.509766
2018-10-11T03:03:50.854Z,73.919678
2018-10-11T03:04:20.344Z,72.30835
2018-10-11T03:04:49.835Z,71.765137
2018-10-11T03:05:19.348Z,71.099854
2018-10-11T03:05:48.835Z,71.19751
2018-10-11T03:06:19.335Z,70.794678
2018-10-11T03:06:48.844Z,72.772217
2018-10-11T03:07:18.396Z,72.070312
2018-10-11T03:07:47.888Z,70.76416
2018-10-11T03:08:17.375Z,71.966553
2018-10-11T03:08:46.876Z,72.875977
2018-10-11T03:09:16.369Z,73.779297
2018-10-11T03:09:45.860Z,72.271729
2018-10-11T03:10:15.362Z,74.285889
2018-10-11T03:10:44.890Z,73.480225
2018-10-11T03:11:14.375Z,73.779297
2018-10-11T03:11:43.860Z,71.765137
2018-10-11T03:12:13.407Z,73.376465
2018-10-11T03:12:42.896Z,72.369385
2018-10-11T03:13:12.406Z,69.854736
2018-10-11T03:13:41.898Z,68.951416
2018-10-11T03:14:11.392Z,72.20459
2018-10-11T03:14:40.907Z,73.681641
2018-10-11T03:15:10.403Z,74.084473
2018-10-11T03:15:39.930Z,73.980713
2018-10-11T03:16:09.430Z,73.077393
2018-10-11T03:16:38.930Z,69.65332
2018-10-11T03:17:08.418Z,70.6604
2018-10-11T03:17:37.962Z,73.175049
2018-10-11T03:18:07.486Z,72.875977
2018-10-11T03:18:36.977Z,73.577881
2018-10-11T03:19:06.463Z,72.070312
2018-10-11T03:19:35.951Z,72.369385
2018-10-11T03:20:05.465Z,70.159912
2018-10-11T03:20:34.952Z,70.794678
2018-10-11T03:21:04.486Z,71.099854
2018-10-11T03:21:34.656Z,70.593262
2018-10-11T03:22:04.163Z,69.787598
2018-10-11T03:22:33.707Z,69.891357
2018-10-11T03:23:03.202Z,69.989014
2018-10-11T03:23:32.711Z,72.039795
2018-10-11T03:24:02.202Z,70.727539
2018-10-11T03:24:31.692Z,72.137451
2018-10-11T03:25:01.185Z,71.331787
2018-10-11T03:25:30.679Z,72.509766
2018-10-11T03:26:00.176Z,73.815918
2018-10-11T03:26:29.667Z,73.114014
2018-10-11T03:26:59.164Z,72.30835
2018-10-11T03:27:28.690Z,74.420166
2018-10-11T03:27:58.250Z,74.017334
2018-10-11T03:28:27.760Z,72.912598
2018-10-11T03:28:57.248Z,72.607422
2018-10-11T03:29:26.745Z,72.003174
2018-10-11T03:29:56.277Z,72.003174
2018-10-11T03:30:25.798Z,70.593262
2018-10-11T03:30:55.320Z,72.003174
2018-10-11T03:31:24.825Z,72.106934
2018-10-11T03:31:54.340Z,72.509766
2018-10-11T03:32:23.827Z,72.30835
2018-10-11T03:32:54.378Z,73.114014
2018-10-11T03:33:23.880Z,73.010254
2018-10-11T03:33:53.403Z,73.614502
2018-10-11T03:34:22.882Z,73.31543
2018-10-11T03:34:52.379Z,70.294189
2018-10-11T03:35:22.858Z,69.989014
2018-10-11T03:35:52.377Z,73.31543
2018-10-11T03:36:21.886Z,71.905518
2018-10-11T03:36:51.389Z,74.21875
2018-10-11T03:37:20.876Z,72.406006
2018-10-11T03:37:50.430Z,71.704102
2018-10-11T03:38:20.099Z,73.010254
2018-10-11T03:38:49.578Z,70.422363
2018-10-11T03:39:19.104Z,69.720459
2018-10-11T03:39:48.626Z,70.623779
2018-10-11T03:40:18.119Z,70.257568
2018-10-11T03:40:47.640Z,70.257568
2018-10-11T03:41:17.142Z,70.690918
2018-10-11T03:41:46.641Z,71.398926
2018-10-11T03:42:16.177Z,71.30127
2018-10-11T03:42:46.666Z,71.502686
2018-10-11T03:43:16.208Z,71.600342
2018-10-11T03:43:45.736Z,71.905518
2018-10-11T03:44:15.290Z,72.20459
2018-10-11T03:44:44.783Z,72.711182
2018-10-11T03:45:14.270Z,74.493408
2018-10-11T03:45:43.771Z,72.674561
2018-10-11T03:46:14.263Z,74.694824
2018-10-11T03:46:44.257Z,73.651123
2018-10-11T03:47:15.491Z,72.241211
2018-10-11T03:47:45.001Z,73.345947
2018-10-11T03:48:14.486Z,74.755859
2018-10-11T03:48:44.028Z,73.449707
2018-10-11T03:49:13.533Z,74.658203
2018-10-11T03:49:43.030Z,72.137451
2018-10-11T03:50:12.529Z,72.540283
2018-10-11T03:50:42.025Z,72.808838
2018-10-11T03:51:11.600Z,73.718262
2018-10-11T03:51:41.067Z,73.516846
2018-10-11T03:52:10.570Z,72.711182
2018-10-11T03:52:40.085Z,73.010254
2018-10-11T03:53:09.597Z,74.822998
2018-10-11T03:53:39.151Z,73.31543
2018-10-11T03:54:08.659Z,72.406006
2018-10-11T03:54:38.156Z,72.808838
2018-10-11T03:55:07.721Z,72.20459
2018-10-11T03:55:37.216Z,72.509766
2018-10-11T03:56:06.744Z,73.114014
2018-10-11T03:56:37.241Z,75.128174
2018-10-11T03:57:06.736Z,74.017334
2018-10-11T03:57:36.226Z,73.31543
2018-10-11T03:58:05.734Z,72.20459
2018-10-11T03:58:35.280Z,72.607422
2018-10-11T03:59:04.773Z,71.099854
2018-10-11T03:59:34.391Z,70.092773
2018-10-11T04:00:03.883Z,72.912598
2018-10-11T04:00:33.384Z,72.30835
2018-10-11T04:01:02.914Z,70.794678
2018-10-11T04:01:32.415Z,74.32251
2018-10-11T04:02:01.912Z,73.010254
2018-10-11T04:02:31.399Z,73.919678
2018-10-11T04:03:00.890Z,74.420166
2018-10-11T04:03:30.392Z,72.711182
2018-10-11T04:03:59.954Z,74.523926
2018-10-11T04:04:29.469Z,75.024414
2018-10-11T04:04:58.971Z,73.21167
2018-10-11T04:05:28.481Z,73.21167
2018-10-11T04:05:58.014Z,73.815918
2018-10-11T04:06:27.500Z,75.128174
2018-10-11T04:06:56.994Z,73.413086
2018-10-11T04:07:27.541Z,74.822998
2018-10-11T04:07:57.004Z,75.22583
2018-10-11T04:08:26.468Z,74.32251
2018-10-11T04:08:56.027Z,73.718262
2018-10-11T04:09:25.537Z,72.711182
2018-10-11T04:09:55.030Z,72.912598
2018-10-11T04:10:24.528Z,72.912598
2018-10-11T04:10:54.011Z,74.121094
2018-10-11T04:11:23.529Z,73.31543
2018-10-11T04:11:53.031Z,74.383545
2018-10-11T04:12:22.515Z,73.980713
2018-10-11T04:12:52.052Z,74.487305
2018-10-11T04:13:21.586Z,73.980713
2018-10-11T04:13:51.049Z,73.718262
2018-10-11T04:14:20.605Z,74.017334
2018-10-11T04:14:50.102Z,72.912598
2018-10-11T04:15:19.600Z,72.973633
2018-10-11T04:15:49.093Z,72.271729
2018-10-11T04:16:18.591Z,72.875977
2018-10-11T04:16:48.252Z,72.570801
2018-10-11T04:17:18.763Z,73.681641
2018-10-11T04:17:48.258Z,72.473145
2018-10-11T04:18:17.747Z,73.376465
2018-10-11T04:18:47.270Z,71.466064
2018-10-11T04:19:16.841Z,73.175049
2018-10-11T04:19:46.335Z,74.182129
2018-10-11T04:20:15.833Z,75.091553
2018-10-11T04:20:45.324Z,72.674561
2018-10-11T04:21:14.829Z,72.070312
2018-10-11T04:21:44.329Z,72.167969
2018-10-11T04:22:13.827Z,73.577881
2018-10-11T04:22:43.372Z,73.980713
2018-10-11T04:23:12.913Z,73.883057
2018-10-11T04:23:42.420Z,72.167969
2018-10-11T04:24:11.924Z,72.570801
2018-10-11T04:24:41.474Z,72.070312
2018-10-11T04:25:10.968Z,70.861816
2018-10-11T04:25:40.465Z,74.182129
2018-10-11T04:26:09.955Z,72.772217
2018-10-11T04:26:39.460Z,72.973633
2018-10-11T04:27:08.949Z,73.077393
2018-10-11T04:27:38.450Z,73.681641
2018-10-11T04:28:07.934Z,73.779297
2018-10-11T04:28:37.428Z,73.681641
2018-10-11T04:29:06.924Z,73.681641
2018-10-11T04:29:36.510Z,72.772217
2018-10-11T04:30:06.137Z,72.973633
2018-10-11T04:30:35.525Z,72.772217
2018-10-11T04:31:05.050Z,73.278809
2018-10-11T04:31:34.550Z,71.466064
2018-10-11T04:32:04.083Z,72.674561
2018-10-11T04:32:33.629Z,71.66748
2018-10-11T04:33:03.163Z,71.66748
2018-10-11T04:33:32.648Z,70.861816
2018-10-11T04:34:02.266Z,72.570801
2018-10-11T04:34:31.815Z,72.973633
2018-10-11T04:35:01.365Z,70.6604
2018-10-11T04:35:30.854Z,72.271729
2018-10-11T04:36:00.397Z,73.175049
2018-10-11T04:36:29.847Z,72.674561
2018-10-11T04:37:00.331Z,72.070312
2018-10-11T04:37:29.850Z,72.473145
2018-10-11T04:37:59.344Z,71.264648
2018-10-11T04:38:28.868Z,69.854736
2018-10-11T04:39:00.345Z,69.287109
2018-10-11T04:39:29.858Z,69.720459
2018-10-11T04:39:59.407Z,70.220947
2018-10-11T04:40:28.908Z,70.623779
2018-10-11T04:40:58.402Z,71.166992
2018-10-11T04:41:27.912Z,71.569824
2018-10-11T04:41:57.406Z,70.965576
2018-10-11T04:42:26.915Z,71.368408
2018-10-11T04:42:56.555Z,72.375488
2018-10-11T04:43:25.914Z,72.442627
2018-10-11T04:43:55.416Z,72.540283
2018-10-11T04:44:24.937Z,70.623779
2018-10-11T04:44:54.501Z,70.727539
2018-10-11T04:45:24.004Z,70.928955
2018-10-11T04:45:53.495Z,71.234131
2018-10-11T04:46:22.997Z,70.928955
2018-10-11T04:46:52.485Z,71.435547
2018-10-11T04:47:21.980Z,71.130371
2018-10-11T04:47:51.475Z,71.234131
2018-10-11T04:48:20.963Z,71.838379
2018-10-11T04:48:50.461Z,73.449707
2018-10-11T04:49:19.944Z,73.449707
2018-10-11T04:49:49.451Z,72.741699
2018-10-11T04:50:18.996Z,74.21875
2018-10-11T04:50:48.485Z,72.808838
2018-10-11T04:51:17.977Z,71.19751
2018-10-11T04:51:47.478Z,71.801758
2018-10-11T04:52:17.009Z,70.996094
2018-10-11T04:52:46.499Z,73.516846
2018-10-11T04:53:15.996Z,73.010254
2018-10-11T04:53:45.485Z,72.003174
2018-10-11T04:54:14.974Z,72.509766
2018-10-11T04:54:44.522Z,73.614502
2018-10-11T04:55:14.062Z,72.406006
2018-10-11T04:55:43.550Z,70.794678
2018-10-11T04:56:13.050Z,70.092773
2018-10-11T04:56:42.538Z,70.19043
2018-10-11T04:57:12.030Z,69.689941
2018-10-11T04:57:41.520Z,68.884277
2018-10-11T04:58:11.018Z,69.287109
2018-10-11T04:58:40.514Z,69.586182
2018-10-11T04:59:10.019Z,70.092773
2018-10-11T04:59:39.584Z,70.593262
2018-10-11T05:00:10.011Z,69.18335
2018-10-11T05:00:39.573Z,71.19751
2018-10-11T05:01:09.066Z,71.502686
2018-10-11T05:01:38.567Z,70.898438
2018-10-11T05:02:08.054Z,70.495605
2018-10-11T05:02:37.556Z,67.474365
2018-10-11T05:03:07.052Z,69.586182
2018-10-11T05:03:36.633Z,69.18335
2018-10-11T05:04:06.137Z,69.384766
2018-10-11T05:04:35.637Z,68.884277
2018-10-11T05:05:05.127Z,69.384766
2018-10-11T05:05:34.737Z,68.481445
2018-10-11T05:06:04.241Z,67.974854
2018-10-11T05:06:33.738Z,68.884277
2018-10-11T05:07:03.231Z,69.18335
2018-10-11T05:07:32.758Z,70.092773
2018-10-11T05:08:02.262Z,69.384766
2018-10-11T05:08:31.790Z,69.488525
2018-10-11T05:09:02.279Z,68.780518
2018-10-11T05:09:31.904Z,69.384766
2018-10-11T05:10:01.386Z,67.877197
2018-10-11T05:10:30.901Z,68.579102
2018-10-11T05:11:00.484Z,69.488525
2018-10-11T05:11:30.004Z,68.981934
2018-10-11T05:11:59.525Z,67.877197
2018-10-11T05:12:29.026Z,70.19043
2018-10-11T05:12:58.529Z,70.495605
2018-10-11T05:13:28.031Z,68.280029
2018-10-11T05:13:57.540Z,71.704102
2018-10-11T05:14:27.036Z,69.488525
2018-10-11T05:14:56.529Z,70.593262
2018-10-11T05:15:27.639Z,70.391846
2018-10-11T05:15:57.187Z,68.981934
2018-10-11T05:16:26.735Z,69.787598
2018-10-11T05:16:56.237Z,68.377686
2018-10-11T05:17:25.830Z,66.265869
2018-10-11T05:17:55.237Z,66.967773
2018-10-11T05:18:24.780Z,66.796875
2018-10-11T05:18:54.304Z,66.595459
2018-10-11T05:19:23.793Z,66.900635
2018-10-11T05:19:53.292Z,67.199707
2018-10-11T05:20:23.812Z,67.602539
2018-10-11T05:20:53.387Z,69.720459
2018-10-11T05:21:23.089Z,69.287109
2018-10-11T05:21:52.605Z,72.406006
2018-10-11T05:22:22.101Z,70.996094
2018-10-11T05:22:51.596Z,70.697021
2018-10-11T05:23:22.138Z,70.898438
2018-10-11T05:23:51.639Z,68.17627
2018-10-11T05:24:21.128Z,71.264648
2018-10-11T05:24:50.661Z,71.966553
2018-10-11T05:25:21.149Z,70.458984
2018-10-11T05:25:50.651Z,69.65332
2018-10-11T05:26:20.222Z,68.75
2018-10-11T05:26:49.710Z,69.451904
2018-10-11T05:27:19.240Z,69.049072
2018-10-11T05:27:48.747Z,70.959473
2018-10-11T05:28:18.252Z,71.563721
2018-10-11T05:28:47.740Z,71.868896
2018-10-11T05:29:17.281Z,70.76416
2018-10-11T05:29:46.777Z,71.264648
2018-10-11T05:30:16.276Z,71.466064
2018-10-11T05:30:45.779Z,69.451904
2018-10-11T05:31:15.263Z,70.861816
2018-10-11T05:31:44.878Z,70.458984
2018-10-11T05:32:14.386Z,68.75
2018-10-11T05:32:43.874Z,68.75
2018-10-11T05:33:13.389Z,68.75
2018-10-11T05:33:42.878Z,70.159912
2018-10-11T05:34:12.382Z,71.160889
2018-10-11T05:34:41.883Z,68.548584
2018-10-11T05:35:11.405Z,69.854736
2018-10-11T05:35:40.897Z,71.466064
2018-10-11T05:36:10.436Z,71.66748
2018-10-11T05:36:39.990Z,70.562744
2018-10-11T05:37:09.500Z,70.159912
2018-10-11T05:37:38.983Z,71.063232
2018-10-11T05:38:08.561Z,70.76416
2018-10-11T05:38:38.031Z,70.861816
2018-10-11T05:39:07.550Z,68.75
2018-10-11T05:39:37.048Z,67.840576